Time;durP1;ratioP1;P1;durP2;ratioP2;P2;SDS_P1;SDS_P2;PMS_P1;PMS_P2;Temp;Humidity;BMP_temperature;BMP_pressure;BME280_temperature;BME280_humidity;BME280_pressure;Samples;Min_cycle;Max_cycle;Signal;HPM_P1;HPM_P2
2021/04/03 00:00:08;;;;;;;9.53;8.67;;;10.40;52.10;;;;;;5036802;28;20663;-85
2021/04/03 00:02:34;;;;;;;9.20;8.30;;;10.40;52.30;;;;;;5036966;28;20600;-85
2021/04/03 00:05:00;;;;;;;9.73;8.73;;;10.50;52.30;;;;;;5036991;28;20652;-86
2021/04/03 00:07:26;;;;;;;9.20;8.37;;;10.60;51.90;;;;;;5037486;28;20190;-85
2021/04/03 00:09:52;;;;;;;9.73;8.60;;;10.50;50.90;;;;;;5037713;28;20745;-85
2021/04/03 00:12:17;;;;;;;9.93;9.00;;;10.20;51.90;;;;;;5037801;28;20179;-85
2021/04/03 00:14:45;;;;;;;9.13;8.10;;;10.20;52.00;;;;;;5046332;28;20268;-85
2021/04/03 00:17:10;;;;;;;10.40;9.43;;;10.10;53.10;;;;;;5043325;28;20192;-85
2021/04/03 00:19:36;;;;;;;9.67;8.63;;;10.20;53.70;;;;;;5036243;28;20623;-85
2021/04/03 00:22:03;;;;;;;9.80;8.80;;;10.20;51.60;;;;;;5036705;28;20734;-84
2021/04/03 00:24:28;;;;;;;9.73;8.73;;;9.80;52.40;;;;;;5036715;28;20189;-84
2021/04/03 00:26:54;;;;;;;9.60;8.73;;;9.70;53.40;;;;;;5011928;28;20200;-86
2021/04/03 00:29:19;;;;;;;8.90;8.00;;;9.80;53.30;;;;;;5017300;28;20683;-85
2021/04/03 00:31:45;;;;;;;8.40;7.60;;;10.00;53.00;;;;;;5021084;28;20711;-85
2021/04/03 00:34:11;;;;;;;10.77;8.03;;;10.20;54.20;;;;;;5041249;28;20200;-84
2021/04/03 00:36:36;;;;;;;9.60;8.60;;;10.40;53.70;;;;;;5025275;28;20177;-85
2021/04/03 00:39:03;;;;;;;9.83;8.93;;;10.50;52.80;;;;;;5043910;28;20249;-86
2021/04/03 00:41:28;;;;;;;10.20;8.37;;;10.70;52.90;;;;;;5045044;28;20189;-85
2021/04/03 00:43:54;;;;;;;9.33;8.40;;;10.70;52.40;;;;;;5047612;28;20180;-85
2021/04/03 00:46:20;;;;;;;9.03;8.13;;;10.80;51.90;;;;;;5048305;28;20173;-85
2021/04/03 00:48:46;;;;;;;9.80;8.47;;;10.90;51.90;;;;;;5047892;28;20185;-85
2021/04/03 00:51:12;;;;;;;9.70;8.53;;;10.90;52.20;;;;;;5047565;28;20246;-85
2021/04/03 00:53:37;;;;;;;10.07;9.00;;;10.90;52.10;;;;;;5048037;28;20186;-84
2021/04/03 00:56:04;;;;;;;9.53;8.37;;;10.90;52.20;;;;;;5050287;28;20169;-82
2021/04/03 00:58:30;;;;;;;9.90;8.43;;;10.90;53.70;;;;;;5056487;28;20165;-85
2021/04/03 01:00:57;;;;;;;10.17;8.63;;;10.80;53.10;;;;;;5041883;28;20572;-86
2021/04/03 01:03:24;;;;;;;9.30;8.40;;;10.60;52.50;;;;;;5038585;28;20235;-85
2021/04/03 01:05:50;;;;;;;10.20;9.07;;;10.60;53.10;;;;;;5040984;28;20251;-85
2021/04/03 01:08:16;;;;;;;9.00;8.10;;;10.50;54.30;;;;;;5038012;28;20189;-85
2021/04/03 01:10:47;;;;;;;10.10;9.20;;;10.60;54.00;;;;;;5038072;28;20235;-85
2021/04/03 01:13:34;;;;;;;8.23;7.47;;;10.50;53.20;;;;;;5037894;28;20169;-85
2021/04/03 01:16:21;;;;;;;9.70;8.70;;;10.60;54.10;;;;;;5038384;28;20181;-84
2021/04/03 01:19:18;;;;;;;8.10;7.30;;;10.70;54.30;;;;;;5039549;28;20184;-85
2021/04/03 01:22:26;;;;;;;8.57;7.47;;;10.70;54.20;;;;;;5038218;28;20256;-84
2021/04/03 01:25:06;;;;;;;7.90;7.10;;;10.80;53.40;;;;;;5038039;28;20189;-85
2021/04/03 01:27:32;;;;;;;8.57;7.27;;;10.70;51.30;;;;;;5031190;28;20235;-86
2021/04/03 01:30:05;;;;;;;8.97;8.03;;;10.90;51.20;;;;;;5038646;28;20287;-86
2021/04/03 01:33:07;;;;;;;10.33;8.27;;;10.70;50.80;;;;;;5039126;28;20208;-85
2021/04/03 01:35:55;;;;;;;9.57;8.67;;;10.60;52.00;;;;;;5038844;28;20207;-85
2021/04/03 01:38:32;;;;;;;10.00;9.00;;;10.30;54.50;;;;;;5039585;28;20177;-85
2021/04/03 01:41:00;;;;;;;9.20;8.20;;;10.20;54.70;;;;;;5040061;28;20448;-85
2021/04/03 01:43:30;;;;;;;9.43;8.33;;;10.10;54.40;;;;;;5039134;28;20203;-85
2021/04/03 01:45:56;;;;;;;9.83;8.10;;;10.20;55.70;;;;;;5022073;28;20187;-85
2021/04/03 01:48:23;;;;;;;8.43;7.70;;;10.30;55.30;;;;;;5038956;28;20174;-85
2021/04/03 01:50:50;;;;;;;7.97;7.17;;;10.40;54.90;;;;;;5050200;28;20216;-84
2021/04/03 01:53:18;;;;;;;9.10;8.00;;;10.20;53.10;;;;;;5053257;28;20181;-84
2021/04/03 01:55:45;;;;;;;11.23;8.50;;;10.10;53.60;;;;;;5054530;28;20223;-84
2021/04/03 01:58:11;;;;;;;9.97;7.80;;;10.10;53.90;;;;;;5055029;28;20224;-83
2021/04/03 02:00:39;;;;;;;10.07;9.07;;;10.10;53.70;;;;;;5054382;28;20220;-84
2021/04/03 02:03:06;;;;;;;11.00;9.63;;;9.90;53.10;;;;;;5036800;28;20219;-84
2021/04/03 02:05:34;;;;;;;11.03;9.60;;;9.70;53.70;;;;;;5054221;28;20173;-84
2021/04/03 02:08:01;;;;;;;11.53;10.17;;;9.40;56.60;;;;;;5055257;28;20177;-81
2021/04/03 02:10:28;;;;;;;9.70;8.70;;;9.10;57.00;;;;;;5055305;28;20205;-84
2021/04/03 02:12:54;;;;;;;8.97;8.07;;;9.20;57.40;;;;;;5055404;28;20185;-83
2021/04/03 02:15:22;;;;;;;10.60;9.53;;;9.40;57.40;;;;;;5055217;28;20213;-84
2021/04/03 02:17:50;;;;;;;10.00;9.10;;;9.50;57.90;;;;;;5054523;28;20199;-84
2021/04/03 02:20:17;;;;;;;10.80;9.67;;;9.60;56.70;;;;;;5049373;28;20596;-82
2021/04/03 02:22:43;;;;;;;9.67;8.40;;;9.70;56.50;;;;;;5043487;28;20192;-82
2021/04/03 02:25:11;;;;;;;12.63;9.43;;;9.80;55.70;;;;;;5042346;28;20192;-85
2021/04/03 02:27:37;;;;;;;10.43;8.87;;;9.70;55.60;;;;;;5029042;28;20190;-85
2021/04/03 02:30:15;;;;;;;9.90;8.97;;;9.40;55.60;;;;;;5022957;28;20205;-85
2021/04/03 02:32:56;;;;;;;11.27;9.40;;;9.30;55.90;;;;;;5024544;28;20166;-85
2021/04/03 02:35:24;;;;;;;9.30;8.47;;;9.00;56.20;;;;;;5031150;28;20239;-85
2021/04/03 02:38:00;;;;;;;10.73;9.63;;;8.90;58.00;;;;;;5041379;28;20181;-85
2021/04/03 02:40:28;;;;;;;9.77;8.73;;;9.10;57.10;;;;;;5041195;28;20200;-85
2021/04/03 02:43:37;;;;;;;9.13;8.27;;;9.20;56.50;;;;;;5045020;28;20208;-84
2021/04/03 02:46:14;;;;;;;9.97;8.97;;;9.30;57.20;;;;;;5033871;28;20188;-85
2021/04/03 02:48:47;;;;;;;8.93;8.07;;;9.30;57.00;;;;;;5041151;28;20252;-85
2021/04/03 02:51:16;;;;;;;9.87;8.90;;;9.40;57.00;;;;;;5042551;28;20232;-82
2021/04/03 02:53:42;;;;;;;10.23;9.00;;;9.30;55.90;;;;;;5026937;28;20212;-82
2021/04/03 02:56:10;;;;;;;11.07;9.43;;;9.10;55.70;;;;;;5024307;28;20246;-85
2021/04/03 02:58:37;;;;;;;10.17;9.07;;;8.60;57.60;;;;;;5023637;28;20189;-85
2021/04/03 03:01:09;;;;;;;9.77;8.73;;;8.50;58.00;;;;;;5040600;28;20289;-85
2021/04/03 03:03:36;;;;;;;10.27;9.23;;;8.60;59.90;;;;;;5041332;28;20177;-84
2021/04/03 03:06:02;;;;;;;10.87;9.77;;;8.80;59.50;;;;;;5040707;28;20205;-85
2021/04/03 03:08:29;;;;;;;10.00;9.00;;;8.80;58.70;;;;;;5040993;28;20711;-85
2021/04/03 03:10:57;;;;;;;10.70;8.80;;;9.00;59.10;;;;;;5040214;28;20201;-85
2021/04/03 03:13:25;;;;;;;10.00;8.83;;;9.00;58.40;;;;;;5022421;28;20630;-85
2021/04/03 03:15:51;;;;;;;10.40;8.13;;;9.10;58.40;;;;;;5040713;28;20217;-85
2021/04/03 03:18:18;;;;;;;9.73;8.83;;;9.20;57.90;;;;;;5040076;28;20204;-85
2021/04/03 03:20:45;;;;;;;10.47;8.53;;;9.20;57.70;;;;;;5039679;28;20193;-85
2021/04/03 03:23:12;;;;;;;10.50;8.60;;;9.20;58.10;;;;;;5041177;28;20191;-85
2021/04/03 03:25:39;;;;;;;9.27;8.37;;;9.30;58.10;;;;;;5040109;28;20181;-85
2021/04/03 03:28:06;;;;;;;9.90;8.90;;;9.30;57.80;;;;;;5039587;28;20275;-85
2021/04/03 03:30:32;;;;;;;11.77;8.60;;;9.30;57.80;;;;;;5039939;28;20219;-85
2021/04/03 03:32:58;;;;;;;10.20;8.90;;;9.40;57.70;;;;;;5022194;28;20242;-85
2021/04/03 03:35:24;;;;;;;11.07;8.83;;;9.40;58.80;;;;;;5040155;28;20216;-84
2021/04/03 03:37:51;;;;;;;12.47;9.13;;;9.30;57.90;;;;;;5040003;28;20173;-85
2021/04/03 03:40:17;;;;;;;10.67;8.73;;;9.30;57.50;;;;;;5040058;28;20189;-85
2021/04/03 03:42:45;;;;;;;9.53;8.37;;;9.20;58.40;;;;;;5039428;28;20177;-85
2021/04/03 03:45:11;;;;;;;9.20;8.27;;;9.20;58.20;;;;;;5039539;28;20231;-85
2021/04/03 03:47:38;;;;;;;10.40;9.00;;;9.20;59.20;;;;;;5039229;28;20199;-85
2021/04/03 03:50:05;;;;;;;10.17;9.10;;;9.20;59.00;;;;;;5039736;28;20228;-85
2021/04/03 03:52:31;;;;;;;10.67;9.07;;;9.10;59.30;;;;;;5040155;28;20178;-85
2021/04/03 03:54:57;;;;;;;9.60;8.50;;;9.10;59.60;;;;;;5021819;28;20209;-85
2021/04/03 03:57:23;;;;;;;9.10;8.20;;;9.10;59.50;;;;;;5039500;28;20173;-85
2021/04/03 03:59:49;;;;;;;8.83;7.87;;;9.10;59.10;;;;;;5039759;28;20213;-85
2021/04/03 04:02:14;;;;;;;9.93;8.93;;;9.20;58.60;;;;;;5038523;28;20177;-85
2021/04/03 04:04:40;;;;;;;11.63;9.93;;;9.30;58.60;;;;;;5039327;28;20181;-85
2021/04/03 04:07:06;;;;;;;9.93;8.90;;;9.30;58.60;;;;;;5039918;28;20177;-85
2021/04/03 04:09:32;;;;;;;10.47;8.83;;;9.40;58.40;;;;;;5021076;28;20249;-85
2021/04/03 04:12:08;;;;;;;9.77;8.60;;;9.20;58.30;;;;;;5039380;28;20377;-85
2021/04/03 04:14:35;;;;;;;9.60;8.63;;;9.20;59.50;;;;;;5039136;28;20250;-85
2021/04/03 04:17:01;;;;;;;12.13;8.80;;;9.20;59.40;;;;;;5038446;28;20228;-85
2021/04/03 04:19:26;;;;;;;8.63;7.50;;;9.20;59.30;;;;;;5039016;28;20185;-84
2021/04/03 04:21:53;;;;;;;13.20;9.00;;;9.10;60.20;;;;;;5038558;28;20205;-85
2021/04/03 04:24:19;;;;;;;10.87;8.73;;;9.10;60.00;;;;;;5038551;28;20260;-84
2021/04/03 04:26:45;;;;;;;11.60;9.57;;;8.90;60.80;;;;;;5031547;28;20185;-85
2021/04/03 04:29:10;;;;;;;11.17;8.53;;;8.80;60.70;;;;;;5018365;28;20241;-82
2021/04/03 04:31:36;;;;;;;10.27;9.20;;;8.80;60.00;;;;;;5018773;28;20283;-82
2021/04/03 04:34:02;;;;;;;12.27;8.87;;;8.90;60.00;;;;;;5018220;28;20703;-82
2021/04/03 04:36:27;;;;;;;9.20;8.23;;;8.80;60.00;;;;;;5029588;28;20644;-85
2021/04/03 04:38:53;;;;;;;11.57;9.33;;;8.90;60.10;;;;;;5037241;28;20181;-85
2021/04/03 04:41:19;;;;;;;9.87;8.17;;;9.00;59.90;;;;;;5036085;28;20201;-85
2021/04/03 04:43:45;;;;;;;12.37;9.43;;;9.00;59.70;;;;;;5036558;28;20177;-84
2021/04/03 04:46:11;;;;;;;9.00;8.03;;;9.00;58.90;;;;;;5036149;28;20235;-84
2021/04/03 04:48:36;;;;;;;10.17;7.73;;;9.00;60.30;;;;;;5037402;28;20203;-85
2021/04/03 04:51:02;;;;;;;10.17;8.33;;;9.00;60.60;;;;;;5020822;28;20204;-85
2021/04/03 04:53:28;;;;;;;10.63;8.93;;;8.90;60.60;;;;;;5038988;28;20181;-85
2021/04/03 04:55:53;;;;;;;13.70;11.20;;;9.00;60.50;;;;;;5038242;28;20209;-85
2021/04/03 04:58:19;;;;;;;20.10;18.10;;;9.00;59.90;;;;;;5038671;28;20192;-85
2021/04/03 05:00:44;;;;;;;12.30;11.03;;;9.00;59.80;;;;;;5039391;28;20224;-85
2021/04/03 05:03:10;;;;;;;11.43;10.23;;;9.10;59.90;;;;;;5040887;28;20359;-85
2021/04/03 05:05:36;;;;;;;34.67;31.17;;;9.10;59.90;;;;;;5040676;28;20181;-85
2021/04/03 05:08:02;;;;;;;12.47;11.27;;;9.20;59.20;;;;;;5040351;28;20201;-85
2021/04/03 05:10:27;;;;;;;22.07;19.80;;;9.20;59.30;;;;;;5042298;28;20244;-85
2021/04/03 05:12:53;;;;;;;10.47;9.47;;;9.20;58.60;;;;;;5047716;28;20185;-84
2021/04/03 05:15:18;;;;;;;11.43;9.87;;;9.10;60.10;;;;;;5042871;28;20220;-82
2021/04/03 05:17:44;;;;;;;11.47;10.27;;;9.10;60.10;;;;;;5022549;28;20189;-83
2021/04/03 05:20:10;;;;;;;10.57;9.57;;;9.20;59.40;;;;;;5040513;28;20220;-82
2021/04/03 05:22:36;;;;;;;13.77;12.10;;;9.30;59.10;;;;;;5039992;28;20177;-85
2021/04/03 05:25:02;;;;;;;20.63;14.80;;;9.30;59.10;;;;;;5040011;28;20212;-85
2021/04/03 05:27:28;;;;;;;7.37;6.40;;;9.30;57.70;;;;;;5040418;28;20189;-85
2021/04/03 05:29:53;;;;;;;7.63;5.73;;;9.00;56.30;;;;;;5040432;28;20286;-85
2021/04/03 05:32:19;;;;;;;6.73;5.70;;;8.70;56.70;;;;;;5046454;28;20217;-85
2021/04/03 05:34:45;;;;;;;12.33;7.67;;;8.70;57.90;;;;;;5055011;28;20200;-85
2021/04/03 05:37:11;;;;;;;6.10;5.50;;;8.40;58.90;;;;;;5065122;28;20261;-85
2021/04/03 05:39:36;;;;;;;17.47;12.43;;;8.50;57.60;;;;;;5064632;28;20198;-85
2021/04/03 05:42:03;;;;;;;6.13;5.33;;;8.60;58.10;;;;;;5065167;28;20184;-85
2021/04/03 05:44:30;;;;;;;6.17;5.10;;;8.70;56.70;;;;;;5027705;28;20222;-85
2021/04/03 05:46:56;;;;;;;18.63;6.57;;;8.50;57.50;;;;;;5044804;28;20212;-85
2021/04/03 05:49:23;;;;;;;7.47;5.80;;;8.50;56.70;;;;;;5044558;28;20177;-85
2021/04/03 05:51:49;;;;;;;6.93;5.43;;;8.60;57.70;;;;;;5043490;28;20219;-84
2021/04/03 05:54:18;;;;;;;7.33;5.30;;;8.70;58.00;;;;;;5021276;28;20284;-83
2021/04/03 05:56:44;;;;;;;9.33;5.27;;;8.80;56.90;;;;;;5043226;28;20193;-84
2021/04/03 05:59:10;;;;;;;5.50;5.00;;;8.90;57.10;;;;;;5005867;28;20185;-85
2021/04/03 06:01:39;;;;;;;8.30;5.60;;;8.70;57.20;;;;;;5042137;28;20232;-85
2021/04/03 06:04:05;;;;;;;6.70;5.60;;;8.60;57.60;;;;;;5046740;28;20173;-85
2021/04/03 06:06:31;;;;;;;7.80;6.77;;;8.50;58.40;;;;;;5041618;28;20283;-85
2021/04/03 06:08:57;;;;;;;12.47;5.80;;;8.60;59.50;;;;;;5047022;28;20196;-85
2021/04/03 06:11:23;;;;;;;5.80;5.17;;;8.80;57.90;;;;;;5045669;28;20208;-85
2021/04/03 06:13:58;;;;;;;9.47;5.27;;;8.80;57.20;;;;;;5049946;28;20200;-85
2021/04/03 06:16:24;;;;;;;9.87;5.27;;;8.90;57.00;;;;;;5044921;28;20185;-85
2021/04/03 06:19:11;;;;;;;8.03;6.10;;;8.80;57.40;;;;;;5040439;28;20688;-85
2021/04/03 06:21:38;;;;;;;10.40;5.60;;;9.00;56.50;;;;;;5027105;28;20201;-86
2021/04/03 06:24:24;;;;;;;10.70;5.70;;;8.80;57.00;;;;;;5034289;28;20212;-85
2021/04/03 06:26:57;;;;;;;8.70;5.37;;;8.80;57.50;;;;;;5051981;28;20782;-85
2021/04/03 06:29:28;;;;;;;5.97;5.37;;;8.60;58.10;;;;;;5059104;28;20207;-85
2021/04/03 06:31:55;;;;;;;6.43;5.47;;;8.50;58.10;;;;;;5051714;28;20634;-85
2021/04/03 06:34:38;;;;;;;9.30;5.57;;;8.60;58.20;;;;;;5040609;28;20293;-85
2021/04/03 06:37:06;;;;;;;6.83;5.70;;;8.60;57.80;;;;;;5040728;28;20165;-85
2021/04/03 06:39:55;;;;;;;7.83;5.57;;;8.70;57.80;;;;;;5040923;28;20636;-84
2021/04/03 06:42:36;;;;;;;5.57;4.97;;;8.70;57.40;;;;;;5039066;28;20195;-85
2021/04/03 06:45:20;;;;;;;9.27;6.00;;;8.80;57.40;;;;;;5039835;28;20188;-85
2021/04/03 06:47:47;;;;;;;5.73;4.93;;;8.70;57.40;;;;;;5042029;28;20200;-85
2021/04/03 06:50:14;;;;;;;7.77;5.07;;;8.70;56.70;;;;;;5041009;28;20224;-84
2021/04/03 06:52:41;;;;;;;7.53;6.27;;;8.70;56.40;;;;;;5041354;28;20213;-85
2021/04/03 06:55:11;;;;;;;8.37;5.63;;;8.60;56.80;;;;;;5042673;28;20205;-85
2021/04/03 06:57:40;;;;;;;9.97;5.73;;;8.60;56.90;;;;;;5044564;28;20196;-85
2021/04/03 07:00:06;;;;;;;9.03;5.80;;;8.50;57.10;;;;;;5041540;28;20208;-84
2021/04/03 07:02:38;;;;;;;7.83;6.03;;;8.50;57.70;;;;;;5038831;28;20625;-86
2021/04/03 07:05:05;;;;;;;12.70;5.53;;;8.40;57.50;;;;;;5020122;28;20169;-86
2021/04/03 07:07:34;;;;;;;8.17;4.80;;;8.60;55.60;;;;;;5038124;28;20189;-86
2021/04/03 07:10:01;;;;;;;10.27;5.37;;;8.60;55.10;;;;;;5038381;28;20271;-85
2021/04/03 07:12:30;;;;;;;5.93;4.87;;;8.60;54.50;;;;;;5020600;28;20185;-85
2021/04/03 07:14:57;;;;;;;5.13;3.67;;;8.60;54.30;;;;;;5042288;28;20324;-85
2021/04/03 07:17:24;;;;;;;6.60;4.37;;;8.60;53.10;;;;;;5040285;28;20606;-85
2021/04/03 07:19:51;;;;;;;4.10;3.70;;;8.70;52.90;;;;;;5043264;28;20192;-86
2021/04/03 07:22:17;;;;;;;10.33;5.50;;;8.70;52.60;;;;;;5039528;28;20260;-85
2021/04/03 07:24:43;;;;;;;7.07;4.73;;;8.60;52.50;;;;;;5038751;28;20193;-85
2021/04/03 07:27:09;;;;;;;5.83;4.20;;;8.70;52.40;;;;;;5039379;28;20196;-85
2021/04/03 07:29:40;;;;;;;7.00;4.27;;;8.80;52.50;;;;;;5037338;28;20769;-85
2021/04/03 07:32:07;;;;;;;5.90;5.13;;;9.00;52.80;;;;;;5018446;28;20684;-85
2021/04/03 07:34:42;;;;;;;5.20;4.70;;;8.70;53.70;;;;;;5017515;28;20279;-85
2021/04/03 07:37:11;;;;;;;8.00;4.93;;;8.90;54.00;;;;;;5016689;28;20181;-85
2021/04/03 07:39:39;;;;;;;6.83;5.40;;;9.10;54.00;;;;;;5021309;28;20174;-86
2021/04/03 07:42:06;;;;;;;6.77;4.80;;;9.10;53.40;;;;;;5024626;28;20653;-85
2021/04/03 07:44:34;;;;;;;7.87;5.53;;;9.00;53.00;;;;;;5017194;28;20204;-84
2021/04/03 07:47:18;;;;;;;12.70;5.20;;;9.10;53.60;;;;;;5037282;28;20185;-85
2021/04/03 07:49:43;;;;;;;8.33;5.67;;;9.20;52.00;;;;;;5035132;28;20169;-86
2021/04/03 07:52:09;;;;;;;12.20;4.80;;;9.10;52.10;;;;;;5034239;28;20231;-86
2021/04/03 07:54:36;;;;;;;5.47;4.27;;;9.00;52.30;;;;;;5035195;28;20706;-85
2021/04/03 07:57:04;;;;;;;8.47;5.07;;;9.00;52.10;;;;;;5034832;28;20181;-85
2021/04/03 07:59:48;;;;;;;7.90;5.10;;;9.00;51.80;;;;;;5034971;28;20207;-85
2021/04/03 08:02:25;;;;;;;7.37;5.20;;;9.00;53.00;;;;;;5035289;28;20169;-85
2021/04/03 08:04:51;;;;;;;7.77;4.50;;;9.10;52.00;;;;;;5015552;28;20268;-84
2021/04/03 08:07:19;;;;;;;7.67;4.30;;;8.80;52.00;;;;;;5024150;28;20619;-85
2021/04/03 08:09:46;;;;;;;7.30;5.20;;;8.70;52.20;;;;;;5034798;28;20176;-85
2021/04/03 08:12:13;;;;;;;8.50;5.50;;;8.70;53.30;;;;;;5017777;28;20185;-85
2021/04/03 08:14:41;;;;;;;5.83;4.50;;;8.80;53.10;;;;;;5034886;28;20213;-86
2021/04/03 08:17:09;;;;;;;7.37;4.80;;;8.80;52.40;;;;;;5018115;28;20189;-85
2021/04/03 08:19:36;;;;;;;6.03;4.60;;;8.80;53.70;;;;;;5016248;28;20181;-86
2021/04/03 08:22:08;;;;;;;6.67;4.60;;;8.80;53.10;;;;;;5033324;28;20203;-85
2021/04/03 08:24:33;;;;;;;9.57;5.07;;;8.70;53.10;;;;;;5035850;28;20648;-85
2021/04/03 08:27:00;;;;;;;7.27;4.93;;;8.80;53.10;;;;;;5034881;28;20207;-85
2021/04/03 08:29:34;;;;;;;6.70;4.30;;;8.80;52.70;;;;;;5035966;28;20326;-86
2021/04/03 08:32:01;;;;;;;6.73;4.83;;;8.80;52.10;;;;;;5034829;28;20208;-86
2021/04/03 08:34:27;;;;;;;7.67;5.03;;;8.70;52.50;;;;;;5017077;28;20216;-86
2021/04/03 08:36:54;;;;;;;5.93;4.43;;;8.70;52.70;;;;;;5034853;28;20188;-86
2021/04/03 08:39:25;;;;;;;7.77;3.97;;;8.60;52.20;;;;;;5017478;28;20185;-86
2021/04/03 08:41:54;;;;;;;5.93;3.67;;;8.70;52.30;;;;;;5035304;28;20204;-85
2021/04/03 08:44:21;;;;;;;7.23;4.53;;;8.80;52.40;;;;;;5036402;28;20251;-85
2021/04/03 08:46:51;;;;;;;9.47;3.67;;;8.90;52.00;;;;;;5033474;28;20188;-86
2021/04/03 08:49:34;;;;;;;9.70;4.70;;;8.90;52.00;;;;;;5035917;28;20227;-86
2021/04/03 08:52:00;;;;;;;6.37;4.07;;;9.10;51.80;;;;;;5037313;28;20169;-88
2021/04/03 08:54:33;;;;;;;14.30;4.07;;;9.10;50.50;;;;;;5038702;28;20208;-90
2021/04/03 08:56:59;;;;;;;6.40;4.00;;;8.90;50.70;;;;;;5036417;28;20231;-86
2021/04/03 08:59:25;;;;;;;3.97;3.40;;;8.90;51.00;;;;;;5036121;28;20220;-88
2021/04/03 09:01:54;;;;;;;6.40;3.70;;;8.90;51.20;;;;;;5036257;28;20200;-87
2021/04/03 09:04:21;;;;;;;9.67;4.30;;;8.90;52.30;;;;;;5037821;28;20177;-86
2021/04/03 09:06:55;;;;;;;11.90;8.07;;;8.80;52.00;;;;;;5039698;28;20263;-86
2021/04/03 09:09:28;;;;;;;8.73;5.33;;;8.80;52.00;;;;;;5043767;28;20173;-85
2021/04/03 09:12:05;;;;;;;6.13;3.63;;;8.70;50.70;;;;;;5041932;28;20225;-84
2021/04/03 09:14:36;;;;;;;4.37;3.83;;;8.70;51.50;;;;;;5042126;28;20200;-85
2021/04/03 09:17:04;;;;;;;19.97;5.00;;;8.90;51.30;;;;;;5024986;28;20204;-85
2021/04/03 09:19:35;;;;;;;6.40;3.90;;;9.10;51.60;;;;;;5003301;28;20653;-85
2021/04/03 09:22:01;;;;;;;4.83;4.10;;;9.40;50.40;;;;;;5021191;28;20181;-85
2021/04/03 09:24:37;;;;;;;4.47;3.67;;;9.40;49.90;;;;;;5029315;28;20193;-86
2021/04/03 09:27:20;;;;;;;4.83;3.10;;;9.40;48.60;;;;;;5041758;28;20206;-84
2021/04/03 09:29:47;;;;;;;6.67;3.67;;;9.40;49.00;;;;;;5045702;28;20227;-84
2021/04/03 09:32:16;;;;;;;5.60;3.10;;;9.70;49.00;;;;;;5026135;28;20181;-85
2021/04/03 09:34:42;;;;;;;5.83;3.73;;;9.60;48.20;;;;;;5045426;28;20215;-85
2021/04/03 09:37:22;;;;;;;7.00;3.57;;;9.80;48.30;;;;;;5014735;28;20639;-85
2021/04/03 09:39:55;;;;;;;7.37;3.50;;;9.80;47.80;;;;;;5025574;28;20185;-85
2021/04/03 09:42:24;;;;;;;6.20;3.70;;;9.90;47.20;;;;;;5041731;28;20173;-85
2021/04/03 09:44:51;;;;;;;6.20;3.10;;;9.70;46.70;;;;;;5022723;28;20200;-85
2021/04/03 09:47:17;;;;;;;5.10;3.20;;;9.60;47.10;;;;;;5039706;28;20280;-84
2021/04/03 09:49:44;;;;;;;4.07;3.07;;;9.70;46.80;;;;;;5038873;28;20193;-84
2021/04/03 09:52:11;;;;;;;4.87;3.60;;;9.90;46.70;;;;;;5039103;28;20274;-84
2021/04/03 09:54:37;;;;;;;5.57;3.83;;;9.80;46.70;;;;;;5046176;28;20239;-84
2021/04/03 09:57:03;;;;;;;4.20;3.20;;;9.90;46.80;;;;;;5053433;28;20181;-84
2021/04/03 09:59:30;;;;;;;5.53;3.27;;;9.80;46.60;;;;;;5048459;28;20216;-84
2021/04/03 10:01:57;;;;;;;5.00;3.50;;;9.70;46.60;;;;;;5027277;28;20212;-85
2021/04/03 10:04:23;;;;;;;6.10;3.23;;;9.80;46.80;;;;;;5041779;28;20204;-85
2021/04/03 10:06:49;;;;;;;5.73;2.80;;;9.80;47.00;;;;;;5040625;28;20196;-84
2021/04/03 10:09:15;;;;;;;3.83;3.10;;;10.00;46.40;;;;;;5037509;28;20251;-85
2021/04/03 10:11:40;;;;;;;4.57;3.30;;;10.10;46.00;;;;;;5041835;28;20221;-85
2021/04/03 10:14:06;;;;;;;4.93;3.10;;;10.50;44.60;;;;;;5042043;28;20605;-85
2021/04/03 10:16:32;;;;;;;5.43;3.67;;;10.90;44.60;;;;;;5052601;28;20196;-85
2021/04/03 10:18:58;;;;;;;4.67;4.13;;;11.40;42.00;;;;;;5040735;28;20228;-86
2021/04/03 10:21:24;;;;;;;10.03;3.90;;;11.70;41.70;;;;;;5040780;28;20205;-86
2021/04/03 10:23:50;;;;;;;8.07;3.63;;;11.70;41.10;;;;;;5043955;28;20193;-86
2021/04/03 10:26:16;;;;;;;11.00;3.40;;;11.60;41.30;;;;;;5040333;28;20197;-86
2021/04/03 10:28:42;;;;;;;6.13;3.00;;;11.80;41.80;;;;;;5043323;28;20189;-86
2021/04/03 10:31:07;;;;;;;5.27;3.50;;;12.30;39.80;;;;;;5040177;28;20277;-86
2021/04/03 10:33:33;;;;;;;6.00;3.27;;;12.70;39.30;;;;;;5039696;28;20581;-86
2021/04/03 10:35:59;;;;;;;4.60;3.80;;;12.90;39.90;;;;;;5041403;28;20289;-86
2021/04/03 10:38:25;;;;;;;3.40;3.10;;;13.00;38.50;;;;;;5037613;28;20197;-87
2021/04/03 10:40:50;;;;;;;4.63;3.43;;;13.20;37.90;;;;;;5003984;28;20213;-87
2021/04/03 10:43:16;;;;;;;6.63;3.30;;;13.40;37.80;;;;;;5020022;28;20189;-86
2021/04/03 10:45:42;;;;;;;5.57;3.57;;;13.10;38.00;;;;;;5041312;28;20603;-86
2021/04/03 10:48:08;;;;;;;3.70;3.23;;;13.10;38.00;;;;;;5024695;28;20192;-86
2021/04/03 10:50:33;;;;;;;5.60;3.57;;;12.70;38.70;;;;;;5041130;28;20213;-85
2021/04/03 10:53:00;;;;;;;3.90;3.27;;;12.40;39.10;;;;;;5042359;28;20226;-85
2021/04/03 10:55:26;;;;;;;5.37;3.27;;;12.40;39.30;;;;;;5040948;28;20684;-87
2021/04/03 10:57:52;;;;;;;4.40;3.40;;;12.50;37.80;;;;;;5039341;28;20204;-85
2021/04/03 11:00:18;;;;;;;4.90;3.30;;;12.70;37.50;;;;;;5040371;28;20237;-84
2021/04/03 11:02:43;;;;;;;4.37;2.80;;;12.80;37.60;;;;;;5036780;28;20224;-85
2021/04/03 11:05:09;;;;;;;3.83;2.83;;;12.90;37.10;;;;;;5020555;28;20201;-86
2021/04/03 11:07:35;;;;;;;3.97;2.90;;;13.20;37.20;;;;;;5038996;28;20395;-86
2021/04/03 11:10:01;;;;;;;3.30;2.60;;;13.80;36.00;;;;;;5042436;28;20218;-85
2021/04/03 11:12:27;;;;;;;5.43;3.33;;;13.70;35.20;;;;;;5038289;28;20200;-86
2021/04/03 11:14:52;;;;;;;6.93;3.57;;;13.40;36.20;;;;;;5035527;28;20351;-86
2021/04/03 11:17:18;;;;;;;6.10;3.30;;;13.10;36.40;;;;;;5038576;28;20207;-86
2021/04/03 11:19:43;;;;;;;10.37;4.00;;;13.40;36.20;;;;;;5022738;28;20196;-86
2021/04/03 11:22:09;;;;;;;4.83;3.30;;;13.60;36.00;;;;;;5042233;28;20189;-86
2021/04/03 11:24:35;;;;;;;4.33;3.00;;;14.00;35.60;;;;;;5040981;28;20270;-86
2021/04/03 11:27:01;;;;;;;6.20;3.10;;;14.30;34.70;;;;;;5028687;28;20219;-87
2021/04/03 11:29:27;;;;;;;7.40;3.80;;;14.30;35.40;;;;;;5045825;28;20191;-87
2021/04/03 11:31:53;;;;;;;7.67;3.93;;;14.60;35.10;;;;;;5045975;28;20820;-86
2021/04/03 11:34:18;;;;;;;4.47;3.50;;;14.90;33.80;;;;;;5046620;28;20231;-86
2021/04/03 11:36:44;;;;;;;4.27;3.10;;;15.30;33.50;;;;;;5046443;28;20529;-86
2021/04/03 11:39:10;;;;;;;7.33;3.63;;;15.00;33.10;;;;;;5053230;28;20252;-84
2021/04/03 11:41:35;;;;;;;7.63;3.57;;;14.90;33.30;;;;;;5055367;28;20214;-87
2021/04/03 11:44:01;;;;;;;3.93;3.07;;;14.70;33.50;;;;;;5036659;28;20189;-87
2021/04/03 11:46:27;;;;;;;12.93;3.83;;;15.10;33.40;;;;;;5037211;28;20243;-86
2021/04/03 11:48:53;;;;;;;5.70;3.40;;;15.00;33.80;;;;;;5040756;28;20195;-87
2021/04/03 11:51:19;;;;;;;7.90;3.60;;;14.90;33.80;;;;;;5024298;28;20215;-87
2021/04/03 11:53:45;;;;;;;7.67;3.77;;;14.90;34.40;;;;;;5038466;28;20199;-86
2021/04/03 11:56:11;;;;;;;6.73;3.80;;;15.10;33.20;;;;;;5036790;28;20283;-86
2021/04/03 11:58:37;;;;;;;6.33;3.40;;;15.10;33.20;;;;;;5035711;28;20220;-87
2021/04/03 12:01:03;;;;;;;7.13;4.20;;;14.90;33.30;;;;;;5039376;28;20225;-86
2021/04/03 12:03:30;;;;;;;4.73;3.67;;;14.90;33.50;;;;;;5036889;28;20252;-86
2021/04/03 12:05:56;;;;;;;5.10;3.70;;;15.00;33.00;;;;;;5020190;28;20266;-86
2021/04/03 12:08:22;;;;;;;6.10;3.67;;;15.40;32.80;;;;;;5038055;28;20247;-87
2021/04/03 12:10:47;;;;;;;5.93;4.43;;;15.60;32.40;;;;;;5020096;28;20268;-86
2021/04/03 12:13:13;;;;;;;5.33;3.13;;;15.70;31.60;;;;;;5040116;28;20219;-86
2021/04/03 12:15:39;;;;;;;4.13;3.40;;;16.30;31.10;;;;;;5051287;28;20306;-85
2021/04/03 12:18:05;;;;;;;4.33;3.70;;;16.40;30.70;;;;;;5043122;28;20693;-88
2021/04/03 12:20:32;;;;;;;4.03;3.27;;;16.00;31.20;;;;;;5029483;28;20223;-86
2021/04/03 12:22:59;;;;;;;2.87;2.60;;;16.20;30.40;;;;;;5034879;28;20192;-86
2021/04/03 12:25:25;;;;;;;5.90;3.23;;;15.80;30.70;;;;;;5050530;28;20560;-87
2021/04/03 12:27:51;;;;;;;5.43;3.70;;;15.20;31.50;;;;;;5049503;28;20169;-84
2021/04/03 12:30:17;;;;;;;10.47;3.60;;;15.70;31.10;;;;;;5052545;28;20219;-87
2021/04/03 12:32:43;;;;;;;6.93;3.13;;;16.40;29.90;;;;;;5049190;28;20194;-87
2021/04/03 12:35:09;;;;;;;4.43;2.77;;;16.40;29.70;;;;;;5050526;28;20229;-87
2021/04/03 12:37:35;;;;;;;7.13;3.60;;;16.60;29.00;;;;;;5052865;28;20275;-86
2021/04/03 12:40:01;;;;;;;23.03;21.00;;;16.20;29.50;;;;;;5049090;28;20248;-89
2021/04/03 12:42:28;;;;;;;7.20;3.37;;;15.80;29.90;;;;;;5048739;28;20192;-87
2021/04/03 12:44:54;;;;;;;6.73;3.40;;;15.80;30.30;;;;;;5028330;28;20226;-86
2021/04/03 12:47:20;;;;;;;5.07;3.73;;;15.80;30.40;;;;;;5047325;28;20204;-90
2021/04/03 12:49:45;;;;;;;3.97;3.10;;;16.00;30.40;;;;;;5033697;28;20188;-87
2021/04/03 12:52:11;;;;;;;5.47;3.13;;;16.20;30.40;;;;;;5048834;28;20212;-87
2021/04/03 12:54:37;;;;;;;9.57;3.70;;;16.20;30.50;;;;;;5046924;28;20273;-86